Weather at Brunei International Airport

Public forecast

Using degrees Celsius for public forecast. Weather courtesy of forecast.io.

Current aviation weather report (METAR) for Brunei International Airport

Retrieved 2022/08/13 18:00 UTC (36 minutes ago):

WBSB 131800Z 16002KT 9999 SCT014 SCT140 BKN300 26/26 Q1009 NOSIG

Aviation forecast (TAF) for Brunei International Airport

Retrieved 2022/08/13 18:08 UTC (28 minutes ago):

TAF WBSB 131700Z 1318/1500 16003KT 9999 FEW014 TEMPO 1322/1400 8000 -SHRA BECMG 1402/1404 22005KT FEW015 FEW016CB